createdAt,value
2023-01-15T00:00:26.865Z,19.00
2023-01-15T00:05:29.611Z,18.92
2023-01-15T00:10:32.320Z,18.85
2023-01-15T00:15:36.766Z,18.77
2023-01-15T00:20:39.641Z,18.65
2023-01-15T00:25:59.699Z,18.59
2023-01-15T00:31:03.907Z,18.53
2023-01-15T00:36:07.285Z,18.48
2023-01-15T00:41:10.009Z,18.40
2023-01-15T00:46:14.487Z,18.32
2023-01-15T00:51:17.217Z,18.25
2023-01-15T00:56:19.949Z,18.16
2023-01-15T01:01:24.205Z,18.14
2023-01-15T01:06:29.217Z,18.07
2023-01-15T01:11:34.309Z,17.98
2023-01-15T01:16:39.832Z,17.91
2023-01-15T01:21:43.363Z,17.86
2023-01-15T01:26:47.823Z,17.80
2023-01-15T01:31:52.164Z,17.72
2023-01-15T01:36:54.960Z,17.67
2023-01-15T01:41:57.693Z,17.62
2023-01-15T01:47:02.078Z,17.58
2023-01-15T01:52:07.692Z,17.52
2023-01-15T01:57:10.844Z,17.47
2023-01-15T02:02:15.365Z,17.43
2023-01-15T02:07:18.225Z,17.36
2023-01-15T02:12:26.171Z,17.33
2023-01-15T02:17:35.036Z,17.26
2023-01-15T02:22:45.663Z,17.21
2023-01-15T02:27:52.814Z,17.17
2023-01-15T02:32:59.701Z,17.14
2023-01-15T02:38:06.601Z,17.10
2023-01-15T02:43:12.606Z,17.04
2023-01-15T02:48:17.674Z,17.00
2023-01-15T02:53:24.690Z,16.97
2023-01-15T02:58:33.218Z,16.91
2023-01-15T03:03:42.873Z,16.90
2023-01-15T03:08:45.747Z,16.84
2023-01-15T03:13:52.954Z,16.81
2023-01-15T03:18:58.003Z,16.77
2023-01-15T03:24:02.785Z,16.73
2023-01-15T03:29:08.570Z,16.70
2023-01-15T03:34:12.023Z,16.66
2023-01-15T03:39:18.289Z,16.62
2023-01-15T03:44:38.394Z,16.58
2023-01-15T03:49:49.948Z,16.56
2023-01-15T03:55:11.693Z,16.55
2023-01-15T04:00:20.460Z,16.49
2023-01-15T04:05:27.746Z,16.46
2023-01-15T04:10:30.773Z,16.43
2023-01-15T04:15:36.102Z,16.41
2023-01-15T04:20:39.168Z,16.34
2023-01-15T04:25:42.442Z,16.31
2023-01-15T04:30:47.657Z,16.27
2023-01-15T04:35:50.306Z,16.28
2023-01-15T04:41:10.631Z,16.22
2023-01-15T04:46:14.905Z,16.19
2023-01-15T04:51:18.141Z,16.17
2023-01-15T04:56:20.815Z,16.16
2023-01-15T05:01:24.885Z,16.09
2023-01-15T05:06:27.628Z,16.08
2023-01-15T05:11:30.531Z,16.06
2023-01-15T05:16:35.144Z,16.03
2023-01-15T05:21:40.898Z,16.02
2023-01-15T05:26:44.095Z,15.98
2023-01-15T05:31:48.300Z,15.97
2023-01-15T05:36:51.006Z,15.93
2023-01-15T05:41:54.045Z,15.89
2023-01-15T05:47:00.113Z,15.89
2023-01-15T05:52:03.281Z,15.89
2023-01-15T05:57:06.014Z,15.84
2023-01-15T06:02:10.022Z,15.82
2023-01-15T06:07:12.694Z,15.79
2023-01-15T06:12:15.448Z,15.77
2023-01-15T06:17:19.413Z,15.74
2023-01-15T06:22:22.077Z,15.71
2023-01-15T06:27:24.805Z,15.67
2023-01-15T06:32:29.303Z,15.66
2023-01-15T06:37:32.009Z,15.64
2023-01-15T06:42:52.354Z,15.65
2023-01-15T06:47:56.501Z,15.63
2023-01-15T06:52:59.170Z,15.61
2023-01-15T06:58:03.941Z,15.59
2023-01-15T07:03:08.037Z,15.56
2023-01-15T07:08:10.701Z,15.54
2023-01-15T07:13:13.368Z,15.52
2023-01-15T07:18:17.383Z,15.50
2023-01-15T07:23:19.980Z,15.50
2023-01-15T07:28:23.480Z,15.46
2023-01-15T07:33:27.469Z,15.46
2023-01-15T07:38:30.337Z,15.42
2023-01-15T07:43:50.360Z,15.42
2023-01-15T07:49:12.067Z,15.39
2023-01-15T07:54:14.786Z,15.37
2023-01-15T07:59:17.539Z,15.33
2023-01-15T08:04:21.571Z,15.32
2023-01-15T08:09:25.809Z,15.30
2023-01-15T08:14:46.043Z,15.28
2023-01-15T08:19:50.067Z,15.25
2023-01-15T08:24:52.834Z,15.26
2023-01-15T08:29:56.653Z,15.22
2023-01-15T08:35:00.707Z,15.23
2023-01-15T08:40:03.576Z,15.22
2023-01-15T08:45:07.265Z,15.21
2023-01-15T08:50:12.795Z,15.17
2023-01-15T08:55:15.993Z,15.17
2023-01-15T09:00:19.727Z,15.22
2023-01-15T09:05:23.925Z,15.73
2023-01-15T09:10:26.969Z,16.21
2023-01-15T09:15:30.303Z,16.71
2023-01-15T09:20:34.324Z,17.15
2023-01-15T09:25:37.059Z,17.51
2023-01-15T09:30:39.849Z,17.84
2023-01-15T09:35:44.471Z,18.11
2023-01-15T09:40:49.957Z,18.32
2023-01-15T09:45:56.648Z,18.59
2023-01-15T09:51:07.412Z,18.98
2023-01-15T09:56:17.871Z,19.08
2023-01-15T10:01:24.541Z,19.12
2023-01-15T10:06:30.093Z,19.18
2023-01-15T10:11:57.266Z,19.14
2023-01-15T10:17:00.097Z,19.08
2023-01-15T10:22:07.319Z,18.92
2023-01-15T10:27:16.559Z,18.83
2023-01-15T10:32:25.003Z,18.72
2023-01-15T10:37:34.622Z,18.64
2023-01-15T10:42:43.725Z,18.75
2023-01-15T10:47:49.857Z,18.79
2023-01-15T10:53:04.223Z,18.79
2023-01-15T10:58:13.329Z,18.82
2023-01-15T11:03:18.409Z,18.77
2023-01-15T11:09:06.505Z,18.74
2023-01-15T11:14:12.786Z,18.70
2023-01-15T11:19:40.933Z,18.69
2023-01-15T11:24:50.198Z,18.73
2023-01-15T11:29:54.139Z,18.79
2023-01-15T11:34:58.124Z,18.88
2023-01-15T11:40:06.674Z,18.85
2023-01-15T11:45:35.441Z,18.91
2023-01-15T11:50:44.570Z,18.94
2023-01-15T11:56:01.206Z,18.86
2023-01-15T12:01:04.150Z,18.79
2023-01-15T12:06:10.001Z,18.72
2023-01-15T12:11:31.520Z,18.68
2023-01-15T12:16:40.549Z,18.66
2023-01-15T12:22:07.512Z,18.65
2023-01-15T12:27:36.474Z,18.72
2023-01-15T12:32:42.571Z,18.70
2023-01-15T12:37:47.783Z,18.65
2023-01-15T12:43:12.209Z,18.68
2023-01-15T12:48:18.585Z,18.70
2023-01-15T12:53:23.254Z,18.81
2023-01-15T12:58:38.748Z,18.85
2023-01-15T13:03:50.731Z,18.89
2023-01-15T13:08:58.245Z,18.88
2023-01-15T13:14:02.389Z,18.77
2023-01-15T13:19:14.863Z,18.70
2023-01-15T13:24:28.909Z,18.76
2023-01-15T13:29:42.001Z,18.80
2023-01-15T13:34:46.562Z,18.78
2023-01-15T13:39:50.809Z,18.75
2023-01-15T13:44:55.372Z,18.70
2023-01-15T13:50:00.420Z,18.66
2023-01-15T13:55:12.250Z,18.59
2023-01-15T14:00:31.817Z,18.66
2023-01-15T14:05:35.738Z,18.75
2023-01-15T14:10:40.420Z,18.76
2023-01-15T14:15:52.739Z,18.78
2023-01-15T14:21:08.399Z,18.79
2023-01-15T14:26:18.869Z,18.72
2023-01-15T14:31:44.073Z,18.70
2023-01-15T14:36:51.621Z,18.56
2023-01-15T14:42:10.767Z,18.53
2023-01-15T14:47:25.622Z,18.70
2023-01-15T14:58:46.189Z,18.84
2023-01-15T15:04:14.939Z,18.88
2023-01-15T15:09:32.391Z,18.85
2023-01-15T15:14:37.653Z,18.76
2023-01-15T15:19:46.127Z,18.64
2023-01-15T15:24:51.300Z,18.68
2023-01-15T15:30:04.761Z,18.64
2023-01-15T15:35:34.252Z,18.54
2023-01-15T15:40:37.795Z,18.50
2023-01-15T15:45:57.984Z,18.53
2023-01-15T15:51:04.373Z,18.52
2023-01-15T15:56:07.636Z,18.58
2023-01-15T16:01:12.402Z,18.59
2023-01-15T16:06:21.564Z,18.61
2023-01-15T16:11:38.048Z,18.62
2023-01-15T16:16:40.928Z,18.53
2023-01-15T16:21:45.274Z,18.59
2023-01-15T16:26:50.827Z,18.50
2023-01-15T16:31:55.941Z,18.47
2023-01-15T16:37:00.683Z,18.43
2023-01-15T16:42:03.452Z,18.39
2023-01-15T16:47:06.784Z,18.40
2023-01-15T16:52:50.101Z,18.39
2023-01-15T16:58:17.517Z,18.36
2023-01-15T17:03:21.831Z,18.40
2023-01-15T17:08:31.860Z,18.36
2023-01-15T17:13:36.354Z,18.36
2023-01-15T17:18:39.105Z,18.38
2023-01-15T17:23:43.423Z,18.39
2023-01-15T17:28:46.434Z,18.33
2023-01-15T17:33:50.654Z,18.29
2023-01-15T17:38:55.540Z,18.23
2023-01-15T17:43:59.254Z,18.19
2023-01-15T17:49:01.920Z,18.11
2023-01-15T17:54:06.052Z,17.97
2023-01-15T17:59:26.567Z,17.91
2023-01-15T18:04:50.367Z,17.83
2023-01-15T18:09:56.248Z,17.74
2023-01-15T18:14:58.954Z,17.64
2023-01-15T18:20:01.672Z,17.54
2023-01-15T18:25:06.576Z,17.47
2023-01-15T18:30:10.939Z,17.35
2023-01-15T18:35:14.858Z,17.31
2023-01-15T18:40:19.263Z,17.24
2023-01-15T18:45:39.561Z,17.14
2023-01-15T18:50:42.288Z,17.03
2023-01-15T18:55:46.376Z,16.96
2023-01-15T19:00:49.161Z,16.91
2023-01-15T19:05:52.056Z,16.84
2023-01-15T19:10:56.221Z,16.75
2023-01-15T19:16:18.645Z,16.69
2023-01-15T19:21:21.836Z,16.62
2023-01-15T19:26:25.929Z,16.56
2023-01-15T19:31:39.038Z,16.47
2023-01-15T19:36:41.865Z,16.40
2023-01-15T19:42:11.461Z,16.33
2023-01-15T19:47:32.350Z,16.25
2023-01-15T19:52:38.671Z,16.21
2023-01-15T19:57:44.020Z,16.16
2023-01-15T20:02:47.537Z,16.08
2023-01-15T20:07:50.352Z,16.02
2023-01-15T20:13:12.421Z,16.00
2023-01-15T20:18:16.981Z,15.95
2023-01-15T20:23:19.781Z,15.90
2023-01-15T20:28:23.937Z,15.85
2023-01-15T20:33:26.836Z,15.80
2023-01-15T20:38:30.491Z,15.77
2023-01-15T20:43:52.687Z,15.74
2023-01-15T20:49:12.625Z,15.66
2023-01-15T20:54:15.778Z,15.64
2023-01-15T20:59:20.032Z,15.65
2023-01-15T21:04:22.757Z,15.55
2023-01-15T21:09:25.588Z,15.54
2023-01-15T21:14:30.194Z,15.48
2023-01-15T21:19:32.862Z,15.48
2023-01-15T21:24:35.692Z,15.45
2023-01-15T21:29:39.763Z,15.41
2023-01-15T21:34:42.533Z,15.36
2023-01-15T21:39:45.234Z,15.33
2023-01-15T21:44:49.471Z,15.30
2023-01-15T21:49:52.196Z,15.26
2023-01-15T21:54:55.098Z,15.23
2023-01-15T21:59:59.487Z,15.21
2023-01-15T22:05:02.204Z,15.28
2023-01-15T22:10:05.591Z,15.79
2023-01-15T22:15:10.934Z,16.30
2023-01-15T22:20:13.769Z,16.83
2023-01-15T22:25:16.849Z,17.30
2023-01-15T22:30:20.960Z,17.69
2023-01-15T22:35:24.868Z,18.07
2023-01-15T22:40:27.677Z,18.29
2023-01-15T22:45:34.387Z,18.51
2023-01-15T22:50:38.342Z,18.69
2023-01-15T22:55:41.109Z,18.73
2023-01-15T23:00:45.348Z,18.79
2023-01-15T23:05:48.131Z,18.78
2023-01-15T23:10:51.113Z,18.78
2023-01-15T23:15:58.666Z,18.70
2023-01-15T23:21:04.166Z,18.62
2023-01-15T23:26:08.684Z,18.50
2023-01-15T23:31:13.031Z,18.43
2023-01-15T23:36:15.907Z,18.27
2023-01-15T23:41:41.222Z,18.23
2023-01-15T23:46:45.345Z,18.13
2023-01-15T23:51:48.061Z,18.01
2023-01-15T23:56:50.739Z,17.87
